Time;durP1;ratioP1;P1;durP2;ratioP2;P2;SDS_P1;SDS_P2;PMS_P1;PMS_P2;Temp;Humidity;BMP_temperature;BMP_pressure;BME280_temperature;BME280_humidity;BME280_pressure;Samples;Min_cycle;Max_cycle;Signal;HPM_P1;HPM_P2
2023/09/12 00:02:16;;;;;;;11.43;8.87;;;;;;;;;;4971427;28;20467;-65
2023/09/12 00:04:42;;;;;;;15.90;9.27;;;;;;;;;;4972793;28;20423;-65
2023/09/12 00:07:08;;;;;;;18.60;9.33;;;;;;;;;;4972773;28;20428;-65
2023/09/12 00:09:34;;;;;;;16.10;9.53;;;;;;;;;;4976186;28;20472;-65
2023/09/12 00:12:02;;;;;;;17.43;8.77;;;;;;;;;;4976106;28;20947;-65
2023/09/12 00:14:28;;;;;;;10.10;9.20;;;;;;;;;;4976135;28;20490;-65
2023/09/12 00:16:56;;;;;;;12.53;9.10;;;;;;;;;;4976143;28;20411;-65
2023/09/12 00:19:22;;;;;;;12.40;8.33;;;;;;;;;;4976146;28;20428;-65
2023/09/12 00:21:48;;;;;;;14.37;9.23;;;;;;;;;;4975931;28;20416;-65
2023/09/12 00:24:14;;;;;;;11.77;9.00;;;;;;;;;;4974681;28;20445;-65
2023/09/12 00:26:40;;;;;;;10.57;9.63;;;;;;;;;;4976097;28;20419;-65
2023/09/12 00:29:06;;;;;;;13.43;10.10;;;;;;;;;;4976038;28;21002;-65
2023/09/12 00:31:32;;;;;;;18.33;9.70;;;;;;;;;;4975924;28;20513;-65
2023/09/12 00:33:58;;;;;;;11.17;10.03;;;;;;;;;;4976036;28;20425;-65
2023/09/12 00:36:24;;;;;;;19.47;10.10;;;;;;;;;;4975867;28;20895;-65
2023/09/12 00:38:50;;;;;;;9.67;8.77;;;;;;;;;;4975741;28;20419;-65
2023/09/12 00:41:16;;;;;;;11.60;9.40;;;;;;;;;;4975569;28;20507;-65
2023/09/12 00:43:42;;;;;;;10.23;9.13;;;;;;;;;;4974403;28;20442;-65
2023/09/12 00:46:10;;;;;;;12.20;8.50;;;;;;;;;;4975131;28;20949;-65
2023/09/12 00:48:38;;;;;;;9.70;8.80;;;;;;;;;;4975476;28;20542;-65
2023/09/12 00:51:04;;;;;;;9.67;8.70;;;;;;;;;;4975471;28;20863;-65
2023/09/12 00:53:30;;;;;;;10.50;9.13;;;;;;;;;;4975677;28;20462;-65
2023/09/12 00:55:59;;;;;;;9.10;8.30;;;;;;;;;;4975386;28;20486;-65
2023/09/12 00:58:28;;;;;;;9.37;8.47;;;;;;;;;;4975322;28;20921;-65
2023/09/12 01:00:54;;;;;;;15.03;9.90;;;;;;;;;;4975282;28;20412;-65
2023/09/12 01:03:20;;;;;;;10.03;9.13;;;;;;;;;;4975143;28;20435;-65
2023/09/12 01:05:46;;;;;;;12.10;9.57;;;;;;;;;;4975355;28;20507;-65
2023/09/12 01:08:12;;;;;;;9.80;8.80;;;;;;;;;;4975083;28;20990;-65
2023/09/12 01:10:38;;;;;;;13.20;9.37;;;;;;;;;;4975485;28;20455;-65
2023/09/12 01:13:04;;;;;;;9.70;8.77;;;;;;;;;;4975075;28;20780;-65
2023/09/12 01:15:33;;;;;;;12.50;8.90;;;;;;;;;;4973714;28;20418;-65
2023/09/12 01:18:00;;;;;;;10.10;9.00;;;;;;;;;;4975028;28;20485;-65
2023/09/12 01:20:31;;;;;;;14.90;9.27;;;;;;;;;;4974059;28;20436;-65
2023/09/12 01:23:03;;;;;;;10.80;9.70;;;;;;;;;;4974930;28;20429;-65
2023/09/12 01:25:48;;;;;;;12.77;9.10;;;;;;;;;;4974878;28;20937;-65
2023/09/12 01:28:16;;;;;;;17.50;9.37;;;;;;;;;;4974691;28;20907;-63
2023/09/12 01:30:42;;;;;;;10.20;9.20;;;;;;;;;;4974781;28;20542;-65
2023/09/12 01:33:09;;;;;;;9.53;8.50;;;;;;;;;;4974801;28;20423;-65
2023/09/12 01:35:37;;;;;;;9.73;8.93;;;;;;;;;;4974517;28;20942;-65
2023/09/12 01:38:03;;;;;;;12.50;9.40;;;;;;;;;;4974771;28;20427;-66
2023/09/12 01:40:39;;;;;;;10.50;8.80;;;;;;;;;;4974617;28;20420;-65
2023/09/12 01:43:07;;;;;;;9.00;8.10;;;;;;;;;;4974636;28;20443;-65
2023/09/12 01:45:36;;;;;;;9.63;8.60;;;;;;;;;;4974401;28;20436;-65
2023/09/12 01:48:03;;;;;;;12.10;9.20;;;;;;;;;;4974431;28;20525;-65
2023/09/12 01:50:31;;;;;;;10.77;9.77;;;;;;;;;;4974292;28;20463;-65
2023/09/12 01:52:59;;;;;;;9.63;8.83;;;;;;;;;;4974390;28;20854;-65
2023/09/12 01:55:28;;;;;;;11.73;9.37;;;;;;;;;;4974251;28;20431;-65
2023/09/12 01:57:57;;;;;;;14.23;10.20;;;;;;;;;;4974257;28;20441;-65
2023/09/12 02:00:26;;;;;;;13.30;9.60;;;;;;;;;;4974005;28;20415;-65
2023/09/12 02:02:52;;;;;;;11.33;10.00;;;;;;;;;;4974262;28;20442;-65
2023/09/12 02:05:20;;;;;;;10.23;9.20;;;;;;;;;;4974188;28;20792;-65
2023/09/12 02:07:47;;;;;;;17.00;9.70;;;;;;;;;;4973975;28;20796;-65
2023/09/12 02:10:15;;;;;;;12.00;9.77;;;;;;;;;;4973999;28;21091;-65
2023/09/12 02:12:41;;;;;;;9.40;8.53;;;;;;;;;;4974115;28;20795;-65
2023/09/12 02:15:10;;;;;;;10.07;9.07;;;;;;;;;;4974084;28;20425;-65
2023/09/12 02:17:38;;;;;;;16.57;9.70;;;;;;;;;;4974291;28;20404;-65
2023/09/12 02:20:05;;;;;;;11.40;9.43;;;;;;;;;;4974193;28;20415;-65
2023/09/12 02:22:31;;;;;;;22.30;9.50;;;;;;;;;;4973770;28;20434;-65
2023/09/12 02:24:57;;;;;;;10.13;9.23;;;;;;;;;;4973930;28;20423;-65
2023/09/12 02:27:25;;;;;;;15.80;9.80;;;;;;;;;;4973787;28;20489;-65
2023/09/12 02:29:55;;;;;;;11.67;10.23;;;;;;;;;;4973779;28;20864;-65
2023/09/12 02:32:21;;;;;;;11.73;10.63;;;;;;;;;;4973731;28;20436;-65
2023/09/12 02:34:47;;;;;;;10.60;9.50;;;;;;;;;;4973501;28;20514;-65
2023/09/12 02:37:15;;;;;;;11.10;10.00;;;;;;;;;;4973599;28;20439;-65
2023/09/12 02:39:41;;;;;;;10.47;9.47;;;;;;;;;;4973600;28;20434;-65
2023/09/12 02:42:07;;;;;;;9.73;9.03;;;;;;;;;;4973579;28;20454;-65
2023/09/12 02:44:38;;;;;;;10.97;9.67;;;;;;;;;;4973343;28;20435;-65
2023/09/12 02:47:04;;;;;;;10.77;9.87;;;;;;;;;;4973394;28;20426;-65
2023/09/12 02:49:30;;;;;;;9.50;8.70;;;;;;;;;;4973424;28;20834;-65
2023/09/12 02:51:56;;;;;;;11.50;9.57;;;;;;;;;;4973468;28;20511;-65
2023/09/12 02:54:22;;;;;;;10.60;9.30;;;;;;;;;;4973419;28;20462;-65
2023/09/12 02:56:48;;;;;;;9.93;9.23;;;;;;;;;;4973469;28;20423;-65
2023/09/12 02:59:17;;;;;;;10.03;9.00;;;;;;;;;;4973325;28;20452;-65
2023/09/12 03:01:45;;;;;;;10.73;9.70;;;;;;;;;;4972038;28;20441;-65
2023/09/12 03:04:14;;;;;;;12.83;9.80;;;;;;;;;;4973477;28;20424;-65
2023/09/12 03:06:40;;;;;;;12.97;10.00;;;;;;;;;;4973293;28;20427;-65
2023/09/12 03:09:06;;;;;;;10.30;9.30;;;;;;;;;;4973335;28;20459;-65
2023/09/12 03:11:32;;;;;;;10.23;9.33;;;;;;;;;;4973180;28;20577;-65
2023/09/12 03:14:00;;;;;;;10.67;9.83;;;;;;;;;;4972022;28;20491;-64
2023/09/12 03:16:26;;;;;;;11.50;10.40;;;;;;;;;;4971877;28;20444;-63
2023/09/12 03:18:52;;;;;;;11.93;10.57;;;;;;;;;;4973073;28;20436;-63
2023/09/12 03:21:18;;;;;;;12.30;9.80;;;;;;;;;;4973426;28;20761;-63
2023/09/12 03:23:44;;;;;;;10.60;9.70;;;;;;;;;;4973060;28;20460;-63
2023/09/12 03:26:10;;;;;;;12.60;9.87;;;;;;;;;;4973031;28;20867;-63
2023/09/12 03:28:38;;;;;;;13.13;9.83;;;;;;;;;;4973020;28;20465;-63
2023/09/12 03:31:07;;;;;;;11.17;9.53;;;;;;;;;;4973072;28;20425;-63
2023/09/12 03:33:33;;;;;;;10.60;9.77;;;;;;;;;;4973109;28;20446;-63
2023/09/12 03:35:59;;;;;;;10.50;9.50;;;;;;;;;;4973055;28;20431;-63
2023/09/12 03:38:25;;;;;;;11.03;10.07;;;;;;;;;;4973043;28;20440;-64
2023/09/12 03:40:51;;;;;;;12.40;11.20;;;;;;;;;;4972907;28;20422;-63
2023/09/12 03:43:17;;;;;;;11.10;10.10;;;;;;;;;;4974895;28;20928;-63
2023/09/12 03:45:43;;;;;;;19.80;12.27;;;;;;;;;;4976938;28;20502;-63
2023/09/12 03:48:09;;;;;;;11.30;10.20;;;;;;;;;;4977031;28;20435;-63
2023/09/12 03:50:35;;;;;;;12.70;10.73;;;;;;;;;;4975723;28;20477;-63
2023/09/12 03:53:01;;;;;;;20.00;12.07;;;;;;;;;;4977037;28;20415;-63
2023/09/12 03:55:27;;;;;;;13.20;11.90;;;;;;;;;;4976945;28;20779;-63
2023/09/12 03:57:53;;;;;;;13.77;11.67;;;;;;;;;;4976877;28;20415;-63
2023/09/12 04:00:19;;;;;;;12.90;11.37;;;;;;;;;;4976773;28;20438;-63
2023/09/12 04:02:45;;;;;;;13.37;11.97;;;;;;;;;;4976700;28;20446;-63
2023/09/12 04:05:11;;;;;;;17.83;12.63;;;;;;;;;;4976818;28;20515;-63
2023/09/12 04:07:37;;;;;;;13.47;12.00;;;;;;;;;;4976656;28;20434;-63
2023/09/12 04:10:03;;;;;;;12.33;11.20;;;;;;;;;;4976535;28;20536;-63
2023/09/12 04:12:29;;;;;;;19.57;11.70;;;;;;;;;;4976668;28;20826;-63
2023/09/12 04:14:55;;;;;;;16.43;11.43;;;;;;;;;;4975212;28;20444;-63
2023/09/12 04:17:23;;;;;;;19.87;12.83;;;;;;;;;;4976646;28;20786;-63
2023/09/12 04:19:52;;;;;;;18.40;12.17;;;;;;;;;;4976743;28;20546;-63
2023/09/12 04:22:20;;;;;;;25.13;19.93;;;;;;;;;;4976434;28;20417;-63
2023/09/12 04:24:46;;;;;;;30.53;21.20;;;;;;;;;;4976482;28;20448;-63
2023/09/12 04:27:14;;;;;;;41.13;30.43;;;;;;;;;;4976405;28;20493;-63
2023/09/12 04:29:43;;;;;;;13.50;12.20;;;;;;;;;;4976264;28;20518;-63
2023/09/12 04:32:09;;;;;;;12.63;11.23;;;;;;;;;;4976338;28;20467;-63
2023/09/12 04:34:37;;;;;;;16.67;11.47;;;;;;;;;;4976104;28;20442;-63
2023/09/12 04:37:05;;;;;;;12.77;11.27;;;;;;;;;;4976001;28;20930;-63
2023/09/12 04:39:33;;;;;;;12.60;11.37;;;;;;;;;;4976175;28;20816;-63
2023/09/12 04:41:59;;;;;;;14.30;12.53;;;;;;;;;;4976193;28;20424;-63
2023/09/12 04:44:25;;;;;;;13.97;11.50;;;;;;;;;;4975647;28;20827;-63
2023/09/12 04:46:51;;;;;;;16.93;13.37;;;;;;;;;;4976124;28;20414;-63
2023/09/12 04:49:17;;;;;;;24.00;12.97;;;;;;;;;;4975457;28;20963;-63
2023/09/12 04:51:43;;;;;;;16.90;12.57;;;;;;;;;;4975789;28;20937;-63
2023/09/12 04:54:09;;;;;;;15.40;13.17;;;;;;;;;;4974670;28;20425;-66
2023/09/12 04:56:35;;;;;;;20.73;14.00;;;;;;;;;;4975647;28;20525;-66
2023/09/12 04:59:01;;;;;;;18.63;13.60;;;;;;;;;;4975381;28;20424;-66
2023/09/12 05:01:27;;;;;;;18.50;12.60;;;;;;;;;;4975720;28;20427;-65
2023/09/12 05:03:53;;;;;;;15.07;12.60;;;;;;;;;;4975535;28;20484;-66
2023/09/12 05:06:19;;;;;;;16.83;12.47;;;;;;;;;;4975401;28;20425;-63
2023/09/12 05:08:45;;;;;;;20.13;14.77;;;;;;;;;;4975383;28;20435;-63
2023/09/12 05:11:13;;;;;;;15.47;12.87;;;;;;;;;;4975390;28;20439;-63
2023/09/12 05:13:39;;;;;;;21.70;13.40;;;;;;;;;;4975007;28;20430;-63
2023/09/12 05:16:05;;;;;;;20.50;13.30;;;;;;;;;;4974619;28;20483;-63
2023/09/12 05:18:31;;;;;;;19.30;13.80;;;;;;;;;;4975131;28;20431;-66
2023/09/12 05:21:00;;;;;;;23.03;13.93;;;;;;;;;;4975297;28;20446;-65
2023/09/12 05:23:26;;;;;;;14.07;12.33;;;;;;;;;;4975273;28;20429;-65
2023/09/12 05:25:54;;;;;;;22.40;13.80;;;;;;;;;;4975228;28;20409;-65
2023/09/12 05:28:20;;;;;;;19.10;13.20;;;;;;;;;;4974954;28;20415;-65
2023/09/12 05:30:49;;;;;;;17.73;12.80;;;;;;;;;;4975033;28;20467;-63
2023/09/12 05:33:16;;;;;;;22.03;13.40;;;;;;;;;;4975026;28;20424;-63
2023/09/12 05:35:44;;;;;;;18.13;12.77;;;;;;;;;;4975037;28;20438;-63
2023/09/12 05:38:11;;;;;;;17.40;13.43;;;;;;;;;;4975038;28;20446;-63
2023/09/12 05:40:37;;;;;;;16.57;12.67;;;;;;;;;;4975061;28;20505;-65
2023/09/12 05:43:03;;;;;;;20.07;14.83;;;;;;;;;;4974575;28;20917;-65
2023/09/12 05:45:32;;;;;;;28.17;13.30;;;;;;;;;;4974934;28;20810;-65
2023/09/12 05:47:59;;;;;;;17.00;12.47;;;;;;;;;;4974763;28;20809;-65
2023/09/12 05:50:27;;;;;;;18.20;13.60;;;;;;;;;;4973395;28;20478;-65
2023/09/12 05:52:53;;;;;;;15.03;12.43;;;;;;;;;;4974902;28;20487;-65
2023/09/12 05:55:19;;;;;;;15.63;12.73;;;;;;;;;;4974447;28;20421;-65
2023/09/12 05:57:45;;;;;;;17.17;13.20;;;;;;;;;;4974791;28;20393;-65
2023/09/12 06:00:11;;;;;;;16.33;12.63;;;;;;;;;;4974523;28;20961;-65
2023/09/12 06:02:38;;;;;;;18.13;13.67;;;;;;;;;;4974688;28;20420;-65
2023/09/12 06:05:04;;;;;;;16.67;12.53;;;;;;;;;;4974315;28;20911;-65
2023/09/12 06:07:32;;;;;;;18.17;12.93;;;;;;;;;;4973256;28;20511;-65
2023/09/12 06:10:00;;;;;;;15.30;13.27;;;;;;;;;;4974360;28;20473;-65
2023/09/12 06:12:26;;;;;;;16.60;13.47;;;;;;;;;;4974457;28;20960;-65
2023/09/12 06:14:54;;;;;;;17.67;13.83;;;;;;;;;;4974382;28;20419;-65
2023/09/12 06:17:20;;;;;;;20.27;13.00;;;;;;;;;;4974167;28;20439;-65
2023/09/12 06:19:49;;;;;;;16.50;13.60;;;;;;;;;;4974373;28;20420;-65
2023/09/12 06:22:17;;;;;;;16.60;13.70;;;;;;;;;;4974033;28;20519;-65
2023/09/12 06:24:43;;;;;;;18.10;13.53;;;;;;;;;;4974229;28;20462;-65
2023/09/12 06:27:09;;;;;;;17.13;12.70;;;;;;;;;;4974137;28;20447;-65
2023/09/12 06:29:35;;;;;;;14.30;12.80;;;;;;;;;;4974026;28;20477;-65
2023/09/12 06:32:02;;;;;;;23.00;13.63;;;;;;;;;;4973948;28;20485;-65
2023/09/12 06:34:28;;;;;;;15.97;12.80;;;;;;;;;;4974184;28;20437;-65
2023/09/12 06:36:54;;;;;;;23.00;12.90;;;;;;;;;;4974100;28;20823;-65
2023/09/12 06:39:20;;;;;;;22.00;13.07;;;;;;;;;;4974184;28;20443;-65
2023/09/12 06:41:46;;;;;;;13.87;12.57;;;;;;;;;;4973844;28;20449;-65
2023/09/12 06:44:12;;;;;;;17.70;12.70;;;;;;;;;;4973951;28;20468;-65
2023/09/12 06:46:38;;;;;;;18.63;12.43;;;;;;;;;;4973276;28;20480;-65
2023/09/12 06:49:06;;;;;;;15.90;13.40;;;;;;;;;;4973757;28;20476;-65
2023/09/12 06:51:32;;;;;;;110.33;92.03;;;;;;;;;;4973852;28;20446;-64
2023/09/12 06:54:01;;;;;;;37.37;32.17;;;;;;;;;;4973667;28;20429;-64
2023/09/12 06:56:27;;;;;;;73.57;56.50;;;;;;;;;;4973693;28;20443;-63
2023/09/12 06:58:54;;;;;;;49.10;40.70;;;;;;;;;;4973739;28;20912;-63
2023/09/12 07:01:23;;;;;;;40.27;34.93;;;;;;;;;;4974040;28;20514;-65
2023/09/12 07:03:53;;;;;;;14.20;12.50;;;;;;;;;;4972391;28;20437;-65
2023/09/12 07:06:19;;;;;;;12.50;11.23;;;;;;;;;;4973726;28;20436;-65
2023/09/12 07:08:45;;;;;;;13.93;12.10;;;;;;;;;;4973643;28;20441;-65
2023/09/12 07:11:11;;;;;;;13.93;11.70;;;;;;;;;;4973571;28;20442;-65
2023/09/12 07:13:37;;;;;;;14.30;11.57;;;;;;;;;;4973596;28;20402;-65
2023/09/12 07:16:04;;;;;;;11.50;10.43;;;;;;;;;;4973460;28;20417;-65
2023/09/12 07:18:32;;;;;;;15.80;10.80;;;;;;;;;;4975393;28;20497;-65
2023/09/12 07:20:59;;;;;;;14.77;12.20;;;;;;;;;;4977321;28;20437;-65
2023/09/12 07:23:25;;;;;;;15.47;12.00;;;;;;;;;;4977675;28;20502;-65
2023/09/12 07:25:52;;;;;;;14.13;11.77;;;;;;;;;;4977193;28;20944;-65
2023/09/12 07:28:20;;;;;;;16.73;11.23;;;;;;;;;;4977015;28;20514;-65
2023/09/12 07:30:49;;;;;;;16.47;11.43;;;;;;;;;;4976804;28;20845;-65
2023/09/12 07:33:15;;;;;;;16.00;12.13;;;;;;;;;;4977431;28;20424;-65
2023/09/12 07:35:41;;;;;;;16.10;12.30;;;;;;;;;;4977235;28;20417;-65
2023/09/12 07:38:07;;;;;;;15.87;13.40;;;;;;;;;;4977060;28;20425;-65
2023/09/12 07:40:33;;;;;;;14.53;12.83;;;;;;;;;;4977333;28;20451;-65
2023/09/12 07:42:59;;;;;;;23.00;13.63;;;;;;;;;;4976819;28;20412;-65
2023/09/12 07:45:25;;;;;;;15.90;12.13;;;;;;;;;;4976906;28;20924;-65
2023/09/12 07:47:51;;;;;;;13.87;12.43;;;;;;;;;;4976855;28;20434;-65
2023/09/12 07:50:17;;;;;;;13.90;11.97;;;;;;;;;;4976594;28;20474;-65
2023/09/12 07:52:43;;;;;;;17.17;11.57;;;;;;;;;;4976671;28;20448;-65
2023/09/12 07:55:09;;;;;;;16.90;12.60;;;;;;;;;;4976629;28;20886;-65
2023/09/12 07:57:38;;;;;;;14.93;12.17;;;;;;;;;;4976605;28;20464;-65
2023/09/12 08:00:09;;;;;;;15.10;11.50;;;;;;;;;;4976636;28;20425;-65
2023/09/12 08:02:35;;;;;;;12.07;10.97;;;;;;;;;;4976513;28;20441;-65
2023/09/12 08:05:01;;;;;;;15.67;10.40;;;;;;;;;;4976699;28;20426;-65
2023/09/12 08:07:27;;;;;;;12.40;11.07;;;;;;;;;;4976247;28;20426;-65
2023/09/12 08:09:54;;;;;;;14.73;10.27;;;;;;;;;;4974927;28;20472;-65
2023/09/12 08:12:23;;;;;;;13.93;11.40;;;;;;;;;;4976274;28;20444;-65
2023/09/12 08:14:49;;;;;;;11.10;10.10;;;;;;;;;;4976207;28;20421;-65
2023/09/12 08:17:15;;;;;;;13.27;10.50;;;;;;;;;;4976363;28;20419;-65
2023/09/12 08:19:42;;;;;;;12.80;10.50;;;;;;;;;;4976439;28;20457;-65
2023/09/12 08:22:08;;;;;;;11.80;10.50;;;;;;;;;;4976060;28;20462;-65
2023/09/12 08:24:35;;;;;;;14.70;10.67;;;;;;;;;;4974375;28;20465;-65
2023/09/12 08:27:01;;;;;;;12.77;10.27;;;;;;;;;;4976239;28;20481;-65
2023/09/12 08:29:28;;;;;;;10.77;9.30;;;;;;;;;;4975777;28;20469;-65
2023/09/12 08:31:54;;;;;;;17.00;11.90;;;;;;;;;;4975945;28;20415;-65
2023/09/12 08:34:23;;;;;;;10.03;9.20;;;;;;;;;;4976155;28;20904;-65
2023/09/12 08:36:49;;;;;;;11.77;10.20;;;;;;;;;;4975441;28;20452;-65
2023/09/12 08:39:16;;;;;;;9.97;8.93;;;;;;;;;;4976071;28;20403;-65
2023/09/12 08:41:46;;;;;;;42.33;37.47;;;;;;;;;;4975664;28;20512;-65
2023/09/12 08:44:12;;;;;;;10.50;9.40;;;;;;;;;;4975712;28;20458;-65
2023/09/12 08:46:39;;;;;;;11.03;9.73;;;;;;;;;;4975509;28;20456;-65
2023/09/12 08:49:09;;;;;;;10.50;9.50;;;;;;;;;;4975453;28;20470;-65
2023/09/12 08:51:35;;;;;;;10.27;9.20;;;;;;;;;;4976018;28;20510;-65
2023/09/12 08:54:03;;;;;;;10.90;9.00;;;;;;;;;;4975796;28;20450;-65
2023/09/12 08:56:30;;;;;;;12.63;9.67;;;;;;;;;;4975979;28;20510;-65
2023/09/12 08:58:56;;;;;;;9.77;8.87;;;;;;;;;;4975664;28;20973;-65
2023/09/12 09:01:22;;;;;;;12.90;9.20;;;;;;;;;;4975637;28;20477;-65
2023/09/12 09:03:48;;;;;;;10.23;9.43;;;;;;;;;;4975592;28;20437;-65
2023/09/12 09:06:15;;;;;;;21.17;9.77;;;;;;;;;;4975302;28;20419;-65
2023/09/12 09:08:43;;;;;;;10.73;9.63;;;;;;;;;;4975346;28;20470;-65
2023/09/12 09:11:10;;;;;;;14.70;9.30;;;;;;;;;;4973922;28;20437;-65
2023/09/12 09:13:36;;;;;;;11.77;9.97;;;;;;;;;;4975283;28;20903;-65
2023/09/12 09:16:13;;;;;;;91.50;60.93;;;;;;;;;;4975353;28;20407;-65
2023/09/12 09:18:54;;;;;;;58.20;37.10;;;;;;;;;;4974003;28;20437;-65
2023/09/12 09:21:24;;;;;;;10.13;9.07;;;;;;;;;;4975282;28;20406;-65
2023/09/12 09:23:50;;;;;;;53.63;37.50;;;;;;;;;;4974844;28;20399;-65
2023/09/12 09:26:16;;;;;;;11.83;10.37;;;;;;;;;;4975063;28;20413;-65
2023/09/12 09:28:42;;;;;;;32.10;19.33;;;;;;;;;;4975245;28;20457;-65
2023/09/12 09:31:12;;;;;;;14.17;10.77;;;;;;;;;;4974802;28;20560;-65
2023/09/12 09:33:40;;;;;;;12.77;11.23;;;;;;;;;;4975198;28;20526;-65
2023/09/12 09:36:07;;;;;;;8.63;7.90;;;;;;;;;;4975024;28;20863;-65
2023/09/12 09:38:34;;;;;;;13.30;9.03;;;;;;;;;;4975151;28;20439;-65
2023/09/12 09:41:01;;;;;;;8.57;7.83;;;;;;;;;;4974451;28;20819;-65
2023/09/12 09:43:27;;;;;;;14.87;9.17;;;;;;;;;;4974542;28;20427;-65
2023/09/12 09:45:53;;;;;;;13.13;7.90;;;;;;;;;;4974418;28;20799;-65
2023/09/12 09:48:19;;;;;;;8.43;7.60;;;;;;;;;;4974785;28;20463;-65
2023/09/12 09:50:45;;;;;;;13.50;8.10;;;;;;;;;;4974498;28;20540;-65
2023/09/12 09:53:11;;;;;;;10.37;8.03;;;;;;;;;;4974555;28;20516;-65
2023/09/12 09:55:37;;;;;;;11.63;7.20;;;;;;;;;;4972919;28;20433;-65
2023/09/12 09:58:06;;;;;;;8.27;7.50;;;;;;;;;;4974437;28;20659;-65
2023/09/12 10:00:33;;;;;;;8.13;7.40;;;;;;;;;;4974619;28;20427;-65
2023/09/12 10:03:02;;;;;;;14.80;7.63;;;;;;;;;;4974022;28;20438;-65
2023/09/12 10:05:31;;;;;;;7.43;6.73;;;;;;;;;;4973188;28;20489;-65
2023/09/12 10:07:58;;;;;;;8.93;6.40;;;;;;;;;;4972859;28;20826;-65
2023/09/12 10:10:25;;;;;;;6.40;6.00;;;;;;;;;;4976680;28;20466;-65
2023/09/12 10:12:52;;;;;;;5.53;5.23;;;;;;;;;;4975585;28;20442;-66
2023/09/12 10:15:20;;;;;;;7.30;5.53;;;;;;;;;;4974174;28;20407;-66
2023/09/12 10:17:51;;;;;;;5.53;5.10;;;;;;;;;;4974211;28;20411;-65
2023/09/12 10:20:22;;;;;;;5.30;4.53;;;;;;;;;;4974381;28;20482;-65
2023/09/12 10:23:07;;;;;;;5.43;5.10;;;;;;;;;;4974359;28;20882;-65
2023/09/12 10:25:36;;;;;;;5.03;4.70;;;;;;;;;;4974126;28;20933;-65
2023/09/12 10:28:03;;;;;;;5.17;4.90;;;;;;;;;;4974118;28;20820;-65
2023/09/12 10:30:30;;;;;;;5.03;4.90;;;;;;;;;;4973758;28;20466;-65
2023/09/12 10:32:56;;;;;;;5.10;4.70;;;;;;;;;;4973708;28;20415;-65
2023/09/12 10:35:22;;;;;;;5.27;4.90;;;;;;;;;;4972857;28;20403;-65
2023/09/12 10:37:52;;;;;;;4.50;4.30;;;;;;;;;;4973813;28;20887;-65
2023/09/12 10:40:18;;;;;;;7.30;4.37;;;;;;;;;;4973853;28;20433;-65
2023/09/12 10:42:47;;;;;;;6.93;4.53;;;;;;;;;;4973561;28;20922;-65
2023/09/12 10:45:16;;;;;;;5.10;4.90;;;;;;;;;;4972756;28;20431;-65
2023/09/12 10:47:42;;;;;;;23.57;4.93;;;;;;;;;;4973745;28;20469;-65
2023/09/12 10:50:08;;;;;;;5.10;4.63;;;;;;;;;;4973415;28;20838;-66
2023/09/12 10:52:39;;;;;;;6.83;5.03;;;;;;;;;;4973769;28;20469;-66
2023/09/12 10:55:06;;;;;;;5.77;4.70;;;;;;;;;;4973950;28;20391;-66
2023/09/12 10:57:32;;;;;;;4.93;4.63;;;;;;;;;;4973936;28;20414;-66
2023/09/12 11:00:04;;;;;;;5.07;4.70;;;;;;;;;;4973678;28;20426;-66
2023/09/12 11:02:30;;;;;;;4.87;4.57;;;;;;;;;;4973618;28;20506;-66
2023/09/12 11:04:56;;;;;;;5.33;5.10;;;;;;;;;;4973233;28;20505;-66
2023/09/12 11:07:34;;;;;;;8.20;4.93;;;;;;;;;;4973568;28;20183;-66
2023/09/12 11:10:16;;;;;;;5.27;4.90;;;;;;;;;;4973772;28;20473;-66
2023/09/12 11:12:43;;;;;;;5.00;4.90;;;;;;;;;;4973512;28;20410;-66
2023/09/12 11:15:11;;;;;;;6.20;4.97;;;;;;;;;;4973359;28;20422;-66
2023/09/12 11:17:38;;;;;;;4.87;4.50;;;;;;;;;;4973508;28;20441;-66
2023/09/12 11:20:10;;;;;;;4.53;4.33;;;;;;;;;;4973272;28;20461;-65
2023/09/12 11:22:40;;;;;;;5.10;4.73;;;;;;;;;;4973607;28;20524;-65
2023/09/12 11:25:22;;;;;;;5.20;4.80;;;;;;;;;;4973432;28;20435;-65
2023/09/12 11:27:53;;;;;;;5.50;5.10;;;;;;;;;;4973295;28;20433;-66
2023/09/12 11:30:23;;;;;;;6.97;4.93;;;;;;;;;;4972842;28;20469;-66
2023/09/12 11:32:50;;;;;;;4.97;4.63;;;;;;;;;;4973093;28;20470;-65
2023/09/12 11:35:17;;;;;;;7.07;5.20;;;;;;;;;;4973260;28;20438;-65
2023/09/12 11:37:52;;;;;;;7.20;5.10;;;;;;;;;;4973342;28;20497;-65
2023/09/12 11:40:22;;;;;;;5.40;4.90;;;;;;;;;;4973241;28;20418;-65
2023/09/12 11:42:51;;;;;;;9.73;5.30;;;;;;;;;;4973149;28;20985;-66
2023/09/12 11:45:21;;;;;;;4.80;4.60;;;;;;;;;;4973289;28;20438;-66
2023/09/12 11:47:48;;;;;;;5.70;4.77;;;;;;;;;;4973211;28;20442;-66
2023/09/12 11:50:37;;;;;;;4.87;4.77;;;;;;;;;;4972997;28;20569;-65
2023/09/12 11:53:06;;;;;;;5.53;5.10;;;;;;;;;;4973269;28;20442;-65
2023/09/12 11:55:52;;;;;;;5.43;5.00;;;;;;;;;;4973299;28;20553;-65
2023/09/12 11:58:19;;;;;;;5.13;4.83;;;;;;;;;;4973086;28;20467;-66
2023/09/12 12:00:49;;;;;;;5.67;5.27;;;;;;;;;;4973273;28;20410;-66
2023/09/12 12:03:17;;;;;;;5.53;5.20;;;;;;;;;;4973198;28;20493;-66
2023/09/12 12:05:45;;;;;;;6.00;5.50;;;;;;;;;;4976515;28;20886;-66
2023/09/12 12:08:14;;;;;;;5.13;4.67;;;;;;;;;;4976523;28;20426;-66
2023/09/12 12:10:42;;;;;;;9.30;5.70;;;;;;;;;;4976530;28;20553;-66
2023/09/12 12:13:12;;;;;;;5.53;5.13;;;;;;;;;;4976709;28;20501;-66
2023/09/12 12:15:40;;;;;;;5.37;4.60;;;;;;;;;;4976336;28;20772;-66
2023/09/12 12:18:06;;;;;;;14.10;6.10;;;;;;;;;;4976567;28;20410;-66
2023/09/12 12:20:32;;;;;;;5.70;5.37;;;;;;;;;;4976523;28;20406;-66
2023/09/12 12:22:58;;;;;;;5.27;5.07;;;;;;;;;;4976572;28;20513;-66
2023/09/12 12:25:24;;;;;;;7.80;4.67;;;;;;;;;;4976052;28;20501;-66
2023/09/12 12:27:50;;;;;;;6.27;5.63;;;;;;;;;;4976325;28;20414;-66
2023/09/12 12:30:16;;;;;;;5.83;5.27;;;;;;;;;;4974952;28;20477;-66
2023/09/12 12:32:43;;;;;;;5.10;4.70;;;;;;;;;;4976127;28;20187;-66
2023/09/12 12:35:10;;;;;;;5.83;4.97;;;;;;;;;;4976145;28;20469;-66
2023/09/12 12:37:37;;;;;;;5.57;4.60;;;;;;;;;;4976104;28;20957;-66
2023/09/12 12:40:04;;;;;;;8.03;5.30;;;;;;;;;;4975796;28;20425;-66
2023/09/12 12:42:39;;;;;;;6.20;5.90;;;;;;;;;;4974596;28;20458;-66
2023/09/12 12:45:15;;;;;;;5.23;4.80;;;;;;;;;;4975959;28;20469;-66
2023/09/12 12:47:41;;;;;;;6.30;5.10;;;;;;;;;;4975337;28;20454;-66
2023/09/12 12:50:17;;;;;;;9.37;5.80;;;;;;;;;;4975788;28;20561;-66
2023/09/12 12:52:43;;;;;;;6.00;5.50;;;;;;;;;;4975359;28;20414;-66
2023/09/12 12:55:12;;;;;;;7.83;5.43;;;;;;;;;;4975969;28;20434;-66
2023/09/12 12:57:42;;;;;;;5.20;4.90;;;;;;;;;;4975628;28;20414;-66
2023/09/12 13:00:12;;;;;;;5.17;4.87;;;;;;;;;;4975888;28;20529;-66
2023/09/12 13:02:38;;;;;;;5.10;4.80;;;;;;;;;;4975737;28;20415;-66
2023/09/12 13:05:07;;;;;;;6.53;5.20;;;;;;;;;;4975662;28;21048;-66
2023/09/12 13:07:35;;;;;;;11.00;5.20;;;;;;;;;;4975575;28;20473;-66
2023/09/12 13:10:00;;;;;;;5.00;4.80;;;;;;;;;;4975535;28;20474;-66
2023/09/12 13:12:26;;;;;;;4.10;4.00;;;;;;;;;;4975347;28;20829;-66
2023/09/12 13:14:52;;;;;;;4.57;4.47;;;;;;;;;;4974394;28;20422;-66
2023/09/12 13:17:19;;;;;;;3.93;3.73;;;;;;;;;;4975263;28;20273;-66
2023/09/12 13:19:47;;;;;;;3.73;3.57;;;;;;;;;;4975145;28;20203;-66
2023/09/12 13:22:13;;;;;;;3.03;2.93;;;;;;;;;;4975529;28;20419;-66
2023/09/12 13:24:39;;;;;;;3.83;3.40;;;;;;;;;;4974965;28;20419;-66
2023/09/12 13:27:05;;;;;;;2.90;2.80;;;;;;;;;;4975478;28;20179;-66
2023/09/12 13:29:31;;;;;;;3.50;3.30;;;;;;;;;;4974937;28;20478;-66
2023/09/12 13:31:57;;;;;;;3.73;2.73;;;;;;;;;;4975067;28;20415;-66
2023/09/12 13:34:25;;;;;;;9.23;2.90;;;;;;;;;;4975148;28;20574;-66
2023/09/12 13:36:51;;;;;;;3.43;3.23;;;;;;;;;;4975046;28;20525;-66
2023/09/12 13:39:17;;;;;;;3.23;3.03;;;;;;;;;;4973754;28;20481;-66
2023/09/12 13:41:44;;;;;;;3.43;3.00;;;;;;;;;;4975064;28;20414;-66
2023/09/12 13:44:11;;;;;;;3.00;2.83;;;;;;;;;;4974561;28;20438;-66
2023/09/12 13:46:37;;;;;;;3.10;3.10;;;;;;;;;;4975204;28;20419;-66
2023/09/12 13:49:03;;;;;;;3.00;2.80;;;;;;;;;;4974912;28;20488;-65
2023/09/12 13:51:31;;;;;;;3.13;2.83;;;;;;;;;;4974625;28;20926;-65
2023/09/12 13:53:57;;;;;;;3.27;3.07;;;;;;;;;;4974786;28;20493;-65
2023/09/12 13:56:24;;;;;;;3.00;3.00;;;;;;;;;;4974775;28;20505;-65
2023/09/12 13:58:50;;;;;;;3.10;2.90;;;;;;;;;;4974854;28;20414;-65
2023/09/12 14:01:18;;;;;;;3.30;3.20;;;;;;;;;;4973199;28;20440;-65
2023/09/12 14:03:44;;;;;;;4.67;3.33;;;;;;;;;;4974160;28;20422;-65
2023/09/12 14:06:10;;;;;;;3.63;3.43;;;;;;;;;;4974085;28;20750;-65
2023/09/12 14:08:36;;;;;;;3.33;3.23;;;;;;;;;;4974129;28;20414;-65
2023/09/12 14:11:02;;;;;;;4.30;3.50;;;;;;;;;;4974289;28;20962;-65
2023/09/12 14:13:30;;;;;;;5.67;4.00;;;;;;;;;;4974235;28;20600;-65
2023/09/12 14:15:56;;;;;;;6.43;3.63;;;;;;;;;;4974158;28;20415;-65
2023/09/12 14:18:25;;;;;;;3.80;3.60;;;;;;;;;;4974451;28;20407;-65
2023/09/12 14:20:51;;;;;;;5.60;3.77;;;;;;;;;;4974062;28;20451;-65
2023/09/12 14:23:17;;;;;;;4.07;3.80;;;;;;;;;;4974706;28;20418;-65
2023/09/12 14:25:45;;;;;;;9.10;4.20;;;;;;;;;;4973059;28;20935;-65
2023/09/12 14:28:11;;;;;;;6.50;3.80;;;;;;;;;;4974065;28;20469;-65
2023/09/12 14:30:38;;;;;;;4.27;3.80;;;;;;;;;;4973791;28;20466;-65